Time;durP1;ratioP1;P1;durP2;ratioP2;P2;SDS_P1;SDS_P2;PMS_P1;PMS_P2;Temp;Humidity;BMP_temperature;BMP_pressure;BME280_temperature;BME280_humidity;BME280_pressure;Samples;Min_cycle;Max_cycle;Signal;HPM_P1;HPM_P2
2021/06/17 05:35:35;;;;;;;2.05;1.42;;;;;;;33.94;31.61;100709.61;1747319;81;21927;-64
2021/06/17 05:42:18;;;;;;;3.70;1.60;;;;;;;33.72;31.13;100708.05;1747919;82;22041;-63
2021/06/17 05:44:53;;;;;;;5.80;1.45;;;;;;;33.86;30.73;100702.86;1764161;81;22232;-60
2021/06/17 05:47:26;;;;;;;10.10;1.75;;;;;;;34.03;30.73;100696.53;1747647;82;21453;-60
2021/06/17 05:54:10;;;;;;;46.55;5.92;;;;;;;34.42;29.70;100695.20;1747847;82;21663;-63
2021/06/17 06:00:57;;;;;;;64.27;6.35;;;;;;;33.38;30.58;100697.57;1747044;81;21453;-64
2021/06/17 06:03:33;;;;;;;2.08;1.47;;;;;;;32.72;32.59;100721.19;1743997;81;21241;-67
2021/06/17 06:10:17;;;;;;;13.55;7.53;;;;;;;31.69;33.73;100718.17;1745178;82;21925;-66
2021/06/17 06:12:50;;;;;;;10.90;3.70;;;;;;;31.20;34.44;100722.98;1745060;82;21189;-62
2021/06/17 06:15:24;;;;;;;7.20;2.05;;;;;;;31.02;35.15;100722.05;1745045;82;21217;-63
2021/06/17 06:17:57;;;;;;;2.52;1.67;;;;;;;30.91;35.42;100721.67;1745187;82;21203;-61
2021/06/17 06:20:31;;;;;;;4.67;2.70;;;;;;;31.05;35.32;100725.56;1745341;82;21314;-65
2021/06/17 06:23:06;;;;;;;10.58;2.87;;;;;;;31.26;35.23;100732.21;1745297;82;22008;-65
2021/06/17 06:25:45;;;;;;;5.00;1.82;;;;;;;31.45;35.51;100744.02;1745048;82;21612;-66
2021/06/17 06:28:18;;;;;;;5.40;2.05;;;;;;;31.69;34.96;100743.89;1745596;82;21188;-69
2021/06/17 06:30:51;;;;;;;4.00;2.00;;;;;;;31.67;35.24;100748.75;1743109;82;22016;-65
2021/06/17 06:33:25;;;;;;;2.77;1.82;;;;;;;31.66;35.27;100748.46;1737466;82;21193;-65
2021/06/17 06:35:59;;;;;;;5.55;2.10;;;;;;;31.69;35.08;100747.95;1737413;82;22012;-66
2021/06/17 06:38:33;;;;;;;3.12;1.70;;;;;;;31.96;34.92;100747.24;1737526;82;21566;-65
2021/06/17 06:41:06;;;;;;;;;;;;;;;32.19;34.23;100746.02;1739530;82;21334;-68
2021/06/17 06:43:39;;;;;;;14.83;3.90;;;;;;;32.33;34.16;100749.31;1737310;82;20316;-64
2021/06/17 06:50:09;;;;;;;16.52;5.45;;;;;;;32.63;34.37;100748.57;1737119;82;20236;-68
2021/06/17 06:52:43;;;;;;;8.53;3.00;;;;;;;33.18;34.14;100745.08;1735547;82;22088;-66
2021/06/17 06:55:16;;;;;;;35.20;10.25;;;;;;;33.49;33.30;100736.34;1736992;82;21492;-64
2021/06/17 06:57:49;;;;;;;16.07;4.37;;;;;;;33.70;33.11;100737.39;1735795;82;21323;-63
2021/06/17 07:00:23;;;;;;;4.00;1.92;;;;;;;33.71;32.99;100732.24;1736853;82;21303;-68
2021/06/17 07:02:56;;;;;;;;;;;;;;;33.71;32.53;100725.99;1738455;81;21221;-68
2021/06/17 07:05:30;;;;;;;18.92;4.95;;;;;;;33.61;33.06;100726.02;1734970;82;20352;-66
2021/06/17 07:08:10;;;;;;;8.48;2.65;;;;;;;33.55;33.36;100728.50;1735681;82;21323;-68
2021/06/17 07:10:48;;;;;;;6.08;1.72;;;;;;;33.52;33.01;100722.22;1736926;82;21315;-69
2021/06/17 07:13:15;;;;;;;11.53;2.15;;;;;;;33.40;33.39;100723.06;1736234;82;21304;-69
2021/06/17 07:15:55;;;;;;;6.53;1.50;;;;;;;33.51;33.37;100727.41;1738261;82;21311;-67
2021/06/17 07:18:51;;;;;;;6.65;1.70;;;;;;;33.73;32.87;100725.98;1738749;82;21157;-71
2021/06/17 07:21:24;;;;;;;4.37;1.82;;;;;;;34.29;31.73;100724.39;1736922;82;21484;-69
2021/06/17 07:28:10;;;;;;;10.85;2.45;;;;;;;35.45;30.96;100707.92;1736162;82;21172;-67
2021/06/17 07:30:43;;;;;;;2.92;1.50;;;;;;;36.19;30.15;100710.58;1736959;82;21237;-67
2021/06/17 07:33:19;;;;;;;5.67;2.17;;;;;;;36.67;29.94;100715.33;1734996;82;21608;-68
2021/06/17 07:35:55;;;;;;;8.00;1.67;;;;;;;37.08;29.26;100712.20;1737611;82;21303;-68
2021/06/17 07:38:39;;;;;;;5.55;1.70;;;;;;;37.32;28.23;100710.66;1735640;82;21491;-68
2021/06/17 07:41:13;;;;;;;19.35;2.65;;;;;;;37.34;27.95;100706.52;1737839;82;21308;-68
2021/06/17 07:43:47;;;;;;;7.15;2.10;;;;;;;37.03;27.37;100700.00;1735657;82;21339;-67
2021/06/17 07:46:26;;;;;;;7.97;1.60;;;;;;;37.14;27.98;100694.05;1738023;82;21355;-64
2021/06/17 07:49:19;;;;;;;5.17;1.42;;;;;;;37.28;27.56;100707.74;1738157;82;21491;-66
2021/06/17 07:52:17;;;;;;;3.80;1.20;;;;;;;37.37;26.96;100699.64;1736655;82;21990;-69
2021/06/17 07:54:54;;;;;;;5.45;1.67;;;;;;;37.26;27.40;100696.28;1736666;82;21673;-69
2021/06/17 07:57:27;;;;;;;1.32;1.05;;;;;;;37.19;27.40;100704.06;1736792;82;21338;-65
2021/06/17 08:00:05;;;;;;;2.33;1.50;;;;;;;37.30;27.05;100696.50;1737057;82;22006;-69
2021/06/17 08:02:39;;;;;;;14.00;1.90;;;;;;;37.61;27.16;100696.19;1736449;81;21173;-67
2021/06/17 08:05:27;;;;;;;27.95;3.17;;;;;;;37.80;26.91;100688.67;1738777;82;21197;-61
2021/06/17 08:08:11;;;;;;;33.85;3.12;;;;;;;37.72;26.32;100686.66;1713184;82;21212;-67
2021/06/17 08:14:54;;;;;;;25.00;3.67;;;;;;;36.95;26.67;100679.66;1736974;82;22134;-62
2021/06/17 08:17:29;;;;;;;3.10;1.52;;;;;;;36.36;27.38;100683.61;1736929;82;21354;-65
2021/06/17 08:20:02;;;;;;;12.37;1.87;;;;;;;36.02;28.47;100680.32;1737412;82;21319;-64
2021/06/17 08:22:37;;;;;;;4.97;1.60;;;;;;;35.77;29.27;100689.61;1736269;82;21308;-71
2021/06/17 08:25:11;;;;;;;32.63;3.15;;;;;;;35.73;28.78;100690.72;1737054;82;21323;-64
2021/06/17 08:32:04;;;;;;;8.85;2.02;;;;;;;35.71;28.99;100696.20;1737173;82;21128;-65
2021/06/17 08:34:48;;;;;;;3.98;1.30;;;;;;;35.74;29.99;100692.91;1736115;82;21307;-66
2021/06/17 08:37:42;;;;;;;21.42;2.35;;;;;;;35.87;29.36;100701.74;1735623;82;21185;-65
2021/06/17 08:40:16;;;;;;;6.65;1.72;;;;;;;36.03;29.40;100698.27;1736779;82;21327;-63
2021/06/17 08:42:50;;;;;;;9.73;2.12;;;;;;;36.04;29.39;100708.09;1736451;82;21319;-60
2021/06/17 08:45:26;;;;;;;36.48;3.77;;;;;;;36.02;29.91;100713.03;1709522;82;21200;-61
2021/06/17 08:48:03;;;;;;;11.50;2.40;;;;;;;35.99;29.48;100723.14;1736756;82;21323;-64
2021/06/17 08:50:47;;;;;;;4.37;1.50;;;;;;;35.79;29.82;100714.64;1737026;82;21311;-62
2021/06/17 08:53:32;;;;;;;13.72;2.77;;;;;;;35.41;29.75;100722.41;1735090;82;21221;-63
2021/06/17 08:56:10;;;;;;;17.67;2.50;;;;;;;34.82;30.89;100729.48;1735562;82;21191;-65
2021/06/17 08:58:50;;;;;;;6.37;1.77;;;;;;;34.34;31.21;100730.62;1734635;82;21233;-59
2021/06/17 09:01:23;;;;;;;5.72;1.90;;;;;;;33.90;32.37;100730.54;1736898;82;21173;-64
2021/06/17 09:03:58;;;;;;;6.25;2.35;;;;;;;33.84;33.29;100728.92;1735993;81;21319;-65
2021/06/17 09:06:32;;;;;;;7.45;2.25;;;;;;;33.93;33.10;100733.78;1711154;82;22014;-62
2021/06/17 09:09:05;;;;;;;3.58;1.87;;;;;;;34.08;33.57;100736.47;1736610;82;21359;-65
2021/06/17 09:11:38;;;;;;;;;;;;;;;34.04;33.65;100732.13;1739385;82;21364;-66
2021/06/17 09:14:21;;;;;;;4.58;2.40;;;;;;;33.93;34.21;100734.60;1736024;82;20209;-60
2021/06/17 09:17:03;;;;;;;9.68;2.62;;;;;;;34.15;33.36;100732.91;1736973;82;21303;-62
2021/06/17 09:19:45;;;;;;;5.85;2.08;;;;;;;34.00;34.03;100748.70;1735992;82;21265;-65
2021/06/17 09:26:32;;;;;;;5.75;2.30;;;;;;;33.27;35.35;100746.15;1736990;82;21254;-64
2021/06/17 09:29:05;;;;;;;6.60;2.15;;;;;;;32.65;36.63;100751.03;1736440;82;21338;-62
2021/06/17 09:31:44;;;;;;;5.00;2.85;;;;;;;32.40;37.03;100746.34;1736784;82;21606;-61
2021/06/17 09:34:17;;;;;;;10.58;2.55;;;;;;;32.23;37.81;100747.11;1734055;82;21316;-59
2021/06/17 09:36:50;;;;;;;3.62;2.17;;;;;;;32.14;37.77;100743.29;1731175;83;21324;-60
2021/06/17 09:39:23;;;;;;;;;;;;;;;32.07;38.06;100744.08;1733177;83;21185;-63
2021/06/17 09:41:57;;;;;;;7.67;2.33;;;;;;;32.02;38.72;100740.81;1730875;83;20186;-65
2021/06/17 09:44:39;;;;;;;3.83;2.00;;;;;;;32.10;38.85;100745.70;1730060;83;21299;-61
2021/06/17 09:47:18;;;;;;;4.75;2.22;;;;;;;32.12;38.82;100740.86;1731203;83;21319;-61
2021/06/17 09:49:51;;;;;;;18.55;2.72;;;;;;;32.04;38.73;100742.72;1730562;83;21412;-68
2021/06/17 09:52:39;;;;;;;8.65;2.45;;;;;;;31.96;39.17;100737.77;1731168;83;21320;-63
2021/06/17 09:55:13;;;;;;;7.50;2.30;;;;;;;31.93;39.74;100742.37;1729290;83;22139;-64
2021/06/17 09:57:47;;;;;;;7.37;2.42;;;;;;;31.92;38.73;100748.86;1730902;83;21193;-63
2021/06/17 10:04:31;;;;;;;7.65;2.70;;;;;;;31.82;39.35;100742.86;1729994;83;21201;-60
2021/06/17 10:07:08;;;;;;;5.28;2.50;;;;;;;31.74;39.83;100749.33;1731021;83;21315;-62
2021/06/17 10:09:42;;;;;;;4.65;2.45;;;;;;;31.71;39.30;100745.78;1731050;83;21383;-66
2021/06/17 10:12:16;;;;;;;13.00;2.47;;;;;;;31.71;39.69;100753.91;1730967;83;21320;-64
2021/06/17 10:14:50;;;;;;;9.73;2.67;;;;;;;31.64;39.15;100746.56;1701740;83;21679;-66
2021/06/17 10:21:34;;;;;;;7.53;2.30;;;;;;;31.48;38.87;100736.17;1729585;82;21291;-63
2021/06/17 10:24:23;;;;;;;7.30;2.67;;;;;;;31.20;39.43;100731.09;1730755;83;21320;-62
2021/06/17 10:27:09;;;;;;;3.37;2.22;;;;;;;30.98;39.29;100740.66;1730863;82;21575;-63
2021/06/17 10:33:52;;;;;;;7.35;2.55;;;;;;;30.93;40.50;100739.83;1732456;82;21169;-63
2021/06/17 10:36:37;;;;;;;5.08;2.47;;;;;;;30.93;40.42;100737.92;1734358;82;21308;-64
2021/06/17 10:39:15;;;;;;;6.72;2.47;;;;;;;30.89;40.36;100731.94;1736288;82;21248;-66
2021/06/17 10:42:03;;;;;;;7.33;2.58;;;;;;;30.82;40.90;100752.40;1737225;82;21243;-65
2021/06/17 10:45:04;;;;;;;7.78;2.70;;;;;;;30.73;40.98;100728.80;1738730;82;21354;-64
2021/06/17 10:47:57;;;;;;;3.73;2.50;;;;;;;30.64;41.58;100734.66;1737478;82;21209;-68
2021/06/17 10:51:06;;;;;;;7.95;2.70;;;;;;;30.77;42.50;100730.72;1735512;82;22190;-67
2021/06/17 10:53:46;;;;;;;8.98;2.72;;;;;;;30.97;41.56;100730.94;1651824;86;21414;-60
2021/06/17 10:56:33;;;;;;;46.33;5.22;;;;;;;31.16;41.52;100730.00;1651784;86;21884;-63
2021/06/17 10:59:01;;;;;;;10.38;2.77;;;;;;;31.15;40.93;100731.05;1740629;80;22099;-63
2021/06/17 11:01:45;;;;;;;11.48;2.77;;;;;;;31.10;41.29;100729.13;1775420;80;21383;-66
2021/06/17 11:04:37;;;;;;;4.22;2.22;;;;;;;31.08;41.30;100719.11;1775023;79;21343;-67
2021/06/17 11:07:11;;;;;;;5.83;2.30;;;;;;;31.13;40.54;100714.28;1774690;80;21216;-62
2021/06/17 11:09:48;;;;;;;8.70;2.10;;;;;;;31.24;40.70;100714.61;1774680;80;21450;-67
2021/06/17 11:12:28;;;;;;;4.60;2.30;;;;;;;31.24;40.28;100707.31;1775037;80;21507;-65
2021/06/17 11:15:02;;;;;;;9.63;2.50;;;;;;;31.22;40.92;100710.83;1775978;80;21185;-64
2021/06/17 11:17:41;;;;;;;21.05;2.90;;;;;;;31.25;41.33;100720.31;1776608;80;21295;-69
2021/06/17 11:20:24;;;;;;;9.18;2.15;;;;;;;31.23;40.84;100723.81;1776359;80;21463;-67
2021/06/17 11:23:02;;;;;;;12.47;2.73;;;;;;;31.26;39.68;100707.08;1776546;80;21162;-62
2021/06/17 11:25:38;;;;;;;38.25;3.77;;;;;;;31.27;39.91;100705.45;1775701;80;21364;-70
2021/06/17 11:32:30;;;;;;;12.95;2.27;;;;;;;31.36;40.46;100711.17;1776786;80;21462;-67
2021/06/17 11:35:05;;;;;;;7.33;2.50;;;;;;;31.48;40.45;100712.38;1776255;80;21231;-63
2021/06/17 11:37:40;;;;;;;20.00;2.52;;;;;;;31.46;39.79;100710.45;1779758;80;22043;-69
2021/06/17 11:44:26;;;;;;;4.33;2.05;;;;;;;31.50;39.79;100719.70;1781816;80;21414;-63
2021/06/17 11:47:16;;;;;;;4.15;1.87;;;;;;;31.50;39.49;100727.81;1780264;80;21358;-67
2021/06/17 11:49:49;;;;;;;7.33;2.58;;;;;;;31.43;39.68;100726.67;1781718;80;21326;-63
2021/06/17 11:52:22;;;;;;;10.35;2.50;;;;;;;31.31;39.99;100719.28;1780625;80;21209;-61
2021/06/17 11:54:56;;;;;;;9.83;2.47;;;;;;;31.23;40.31;100721.94;1783215;80;21197;-63
2021/06/17 11:57:36;;;;;;;6.53;2.20;;;;;;;31.25;40.80;100721.66;1739745;80;22038;-62
2021/06/17 12:00:11;;;;;;;10.98;2.52;;;;;;;31.33;40.51;100719.84;1783382;80;21436;-63
2021/06/17 12:07:06;;;;;;;5.87;2.20;;;;;;;31.51;39.39;100717.25;1780564;80;21464;-63
2021/06/17 12:09:40;;;;;;;10.43;2.20;;;;;;;31.56;39.76;100719.98;1781826;80;21232;-64
2021/06/17 12:12:25;;;;;;;9.18;2.20;;;;;;;31.46;39.54;100710.45;1781275;80;21596;-63
2021/06/17 12:15:03;;;;;;;11.18;2.70;;;;;;;31.23;40.20;100700.83;1780301;80;22031;-67
2021/06/17 12:17:46;;;;;;;4.53;1.95;;;;;;;31.14;39.93;100703.75;1780783;80;22135;-66
2021/06/17 12:20:30;;;;;;;5.10;1.80;;;;;;;31.13;40.23;100706.16;1781683;80;21181;-60
2021/06/17 12:23:23;;;;;;;7.22;2.00;;;;;;;31.15;40.44;100708.06;1780748;80;21354;-62
2021/06/17 12:26:11;;;;;;;3.60;1.70;;;;;;;31.21;40.05;100709.74;1781465;80;21378;-64
2021/06/17 12:28:55;;;;;;;5.45;2.40;;;;;;;31.22;39.39;100698.66;1781934;80;21322;-64
2021/06/17 12:31:37;;;;;;;7.03;2.50;;;;;;;31.23;39.32;100709.77;1781941;80;21378;-59
2021/06/17 12:34:17;;;;;;;10.60;2.20;;;;;;;31.18;39.24;100706.20;1781962;80;21482;-65
2021/06/17 12:37:13;;;;;;;7.30;2.37;;;;;;;31.09;39.47;100709.12;1778492;80;21339;-67
2021/06/17 12:40:07;;;;;;;43.58;3.60;;;;;;;30.95;40.01;100707.94;1770353;81;21308;-70
2021/06/17 12:43:11;;;;;;;11.80;1.95;;;;;;;30.78;40.21;100708.04;1769118;81;21319;-65
2021/06/17 12:46:05;;;;;;;6.00;2.05;;;;;;;30.66;41.41;100714.15;1768045;81;21558;-63
2021/06/17 12:54:41;;;;;;;5.87;2.10;;;;;;;30.29;42.00;100711.31;1767371;81;21833;-65
2021/06/17 12:57:29;;;;;;;9.90;2.12;;;;;;;30.18;42.60;100720.39;1767435;81;21367;-66
2021/06/17 13:00:16;;;;;;;15.45;2.22;;;;;;;30.12;42.95;100713.28;1745728;80;21324;-68
2021/06/17 13:02:53;;;;;;;6.00;2.10;;;;;;;30.11;43.17;100712.20;1767566;79;21401;-67
2021/06/17 13:05:28;;;;;;;4.78;2.00;;;;;;;30.14;43.10;100717.89;1769250;81;21162;-69
2021/06/17 13:08:11;;;;;;;8.18;2.50;;;;;;;30.18;43.32;100706.06;1767443;81;21228;-66
2021/06/17 13:10:48;;;;;;;4.50;1.90;;;;;;;30.23;43.81;100707.47;1768281;81;21433;-67
2021/06/17 13:13:27;;;;;;;6.92;2.17;;;;;;;30.30;43.79;100695.40;1756417;81;21311;-68
2021/06/17 13:16:03;;;;;;;6.50;1.90;;;;;;;30.39;43.44;100694.42;1768407;81;21362;-66
2021/06/17 13:18:51;;;;;;;6.22;2.10;;;;;;;30.44;43.39;100689.08;1768944;80;21852;-65
2021/06/17 13:21:25;;;;;;;7.65;2.10;;;;;;;30.46;43.68;100685.05;1768238;81;22120;-69
2021/06/17 13:23:59;;;;;;;8.75;2.05;;;;;;;30.49;43.50;100686.42;1766968;81;22113;-63
2021/06/17 13:26:36;;;;;;;;;;;;;;;30.49;43.53;100679.14;1761289;81;21177;-60
2021/06/17 13:29:19;;;;;;;11.15;2.37;;;;;;;30.46;43.32;100687.75;1766671;80;20189;-67
2021/06/17 13:32:02;;;;;;;7.90;2.33;;;;;;;30.36;43.45;100676.84;1769466;81;21300;-67
2021/06/17 13:34:44;;;;;;;7.78;2.22;;;;;;;30.30;43.77;100668.39;1768111;80;21895;-68
2021/06/17 13:37:20;;;;;;;7.90;2.00;;;;;;;30.28;43.93;100675.94;1767693;81;21339;-67
2021/06/17 13:44:03;;;;;;;5.72;1.95;;;;;;;30.20;43.67;100675.56;1781001;80;21145;-64
